Guatay, CA (91931)

8:58 PM PDT on September 02, 2015 (GMT -0700)
Valley View Meadow | | Change Station
CLOSE
Current Station
Personal Weather Station
Location: Pine Valley, CA
Elevation: 3658 ft
Nearby Weather Stations

Elev 3658 ft 32.84 °N, 116.53 °W | Updated 6 minutes ago

Partly Cloudy
Partly Cloudy
57.7 °F
Feels Like 57.7 °F
N
0.0
Wind Variable Wind from SSE

Today
High -- | Low -- °F
--% Chance of Precip.
Yesterday
High -- | Low -- °F
Precip. -- in
6:21 AM 7:09 PM
Waning Gibbous, 74% visible
Pressure 29.87 in
Visibility -9999.0 miles
Clouds
Dew Point 50 °F
Humidity 75%
Rainfall 0.00 in
Snow Depth Not available.
UV Not available.
Pollen 7.00 out of 12
Air Quality Not available.
Flu Activity Not available.
METAR KCZZ 030352Z AUTO 04004KT 16/11 A2996 RMK AO1 SLP115 T01560106
Pressure 29.87 in
Visibility -9999.0 miles
Clouds
Dew Point 50 °F
Humidity 75%
Rainfall 0.00 in
Snow Depth Not available.
UV Not available.
Pollen 7.00 out of 12
Air Quality Not available.
Flu Activity Not available.
METAR KCZZ 030352Z AUTO 04004KT 16/11 A2996 RMK AO1 SLP115 T01560106

10-Day Weather Forecast

×

Almanac

Astronomy

Sep. 02, 2015 Rise Set
Actual Time
Civil Twilight
Nautical Twilight
Astronomical Twilight
Moon
Length of Visible Light
Length of Day
Tomorrow will be .
, % of the Moon is Illuminated

Today's Extremes

State Highs State Lows

Community

WunderPhotos

Upload Photos

1,851,903 photos uploaded!

WunderBlogs® & News

Nearby

Air Quality

  Air Quality AQ Index Pollutant
Not available.

Snow Depth

Station Depth Elevation

Earthquake Activity

City Distance Mag. Time & Date
Minimum magnitude displayed is 2.5.

Coastal Water Temperatures

Place Temperature

Stations

Nearby Weather Stations

Station Location Temp. Windchill Dew Point Humidity Wind Precip. Elev Updated Type